Time;durP1;ratioP1;P1;durP2;ratioP2;P2;SDS_P1;SDS_P2;PMS_P1;PMS_P2;Temp;Humidity;BMP_temperature;BMP_pressure;BME280_temperature;BME280_humidity;BME280_pressure;Samples;Min_cycle;Max_cycle;Signal;HPM_P1;HPM_P2
2022/04/22 00:00:07;;;;;;;9.38;4.30;;;11.30;99.90;;;;;;5020140;28;20068;-65
2022/04/22 00:02:32;;;;;;;12.32;4.88;;;11.30;99.90;;;;;;5025290;28;20037;-65
2022/04/22 00:04:58;;;;;;;10.07;4.73;;;11.30;99.90;;;;;;5019863;28;20047;-67
2022/04/22 00:07:23;;;;;;;12.48;4.55;;;11.30;99.90;;;;;;5017292;28;20384;-67
2022/04/22 00:09:49;;;;;;;8.23;4.57;;;11.20;99.90;;;;;;5016970;28;20064;-68
2022/04/22 00:12:15;;;;;;;10.97;4.50;;;11.10;99.90;;;;;;5019872;28;20041;-67
2022/04/22 00:14:40;;;;;;;15.23;5.57;;;11.10;99.90;;;;;;5017248;28;20041;-69
2022/04/22 00:17:06;;;;;;;10.13;4.97;;;11.10;99.90;;;;;;5022401;28;20048;-69
2022/04/22 00:19:31;;;;;;;9.90;4.77;;;11.10;99.90;;;;;;5000201;28;20029;-67
2022/04/22 00:21:57;;;;;;;10.23;4.88;;;11.00;99.90;;;;;;5019736;28;20037;-68
2022/04/22 00:24:23;;;;;;;10.70;5.03;;;11.00;99.90;;;;;;5016886;28;20032;-68
2022/04/22 00:26:48;;;;;;;9.57;4.90;;;11.00;99.90;;;;;;5025092;28;20482;-69
2022/04/22 00:29:14;;;;;;;13.20;4.93;;;11.00;99.90;;;;;;5023695;28;20064;-68
2022/04/22 00:31:39;;;;;;;7.77;4.97;;;10.90;99.90;;;;;;5014690;28;20119;-68
2022/04/22 00:34:05;;;;;;;10.27;4.77;;;10.90;99.90;;;;;;5022790;28;20099;-69
2022/04/22 00:36:31;;;;;;;10.63;4.75;;;10.90;99.90;;;;;;5022246;28;20045;-69
2022/04/22 00:38:57;;;;;;;12.23;5.70;;;10.90;99.90;;;;;;4984595;28;20042;-68
2022/04/22 00:41:22;;;;;;;13.47;5.40;;;10.80;99.90;;;;;;5022133;28;20041;-68
2022/04/22 00:43:50;;;;;;;10.97;5.20;;;10.80;99.90;;;;;;5022717;28;20077;-68
2022/04/22 00:46:15;;;;;;;8.80;4.82;;;10.80;99.90;;;;;;5017204;28;20045;-68
2022/04/22 00:48:41;;;;;;;12.40;4.90;;;10.80;99.90;;;;;;5016127;28;20049;-68
2022/04/22 00:51:09;;;;;;;7.43;4.67;;;10.80;99.90;;;;;;5015904;28;20410;-68
2022/04/22 00:53:35;;;;;;;10.77;4.60;;;10.70;99.90;;;;;;5014200;28;20503;-68
2022/04/22 00:56:01;;;;;;;;;;;10.70;99.90;;;;;;5015732;28;20068;-68
2022/04/22 00:58:27;;;;;;;11.57;5.43;;;10.70;99.90;;;;;;5022414;28;19916;-68
2022/04/22 01:00:53;;;;;;;12.85;5.32;;;10.60;99.90;;;;;;5015136;28;20045;-68
2022/04/22 01:03:19;;;;;;;12.17;5.43;;;10.60;99.90;;;;;;5013954;28;20038;-68
2022/04/22 01:11:15;;;;;;;12.07;5.10;;;10.60;99.90;;;;;;5021162;28;20049;-68
2022/04/22 01:13:40;;;;;;;13.45;5.20;;;10.60;99.90;;;;;;5018110;28;20525;-68
2022/04/22 01:16:06;;;;;;;8.50;4.63;;;10.60;99.90;;;;;;5017551;28;20072;-68
2022/04/22 01:18:32;;;;;;;10.70;5.67;;;10.60;99.90;;;;;;5024473;28;20053;-68
2022/04/22 01:21:01;;;;;;;11.10;4.80;;;10.50;99.90;;;;;;4998399;28;20271;-69
2022/04/22 01:23:27;;;;;;;11.43;5.28;;;10.50;99.90;;;;;;5019603;28;20040;-68
2022/04/22 01:25:53;;;;;;;16.80;5.73;;;10.40;99.90;;;;;;5020758;28;20124;-68
2022/04/22 01:28:20;;;;;;;14.90;5.82;;;10.50;99.90;;;;;;5022866;28;20532;-68
2022/04/22 01:30:46;;;;;;;18.67;6.13;;;10.30;99.90;;;;;;5022114;28;20045;-68
2022/04/22 01:33:11;;;;;;;11.87;5.53;;;10.30;99.90;;;;;;5026559;28;20049;-68
2022/04/22 01:35:37;;;;;;;15.80;5.40;;;10.20;99.90;;;;;;5024644;28;20041;-68
2022/04/22 01:38:02;;;;;;;11.17;5.73;;;10.20;99.90;;;;;;5025018;28;20033;-68
2022/04/22 01:40:28;;;;;;;11.27;6.50;;;10.10;99.90;;;;;;5026994;28;20041;-68
2022/04/22 01:42:55;;;;;;;10.60;5.70;;;10.10;99.90;;;;;;5017224;28;20668;-68
2022/04/22 01:45:21;;;;;;;9.82;4.78;;;10.00;99.90;;;;;;5022153;28;20072;-68
2022/04/22 01:47:47;;;;;;;11.17;5.50;;;10.00;99.90;;;;;;5008450;28;20045;-69
2022/04/22 01:50:12;;;;;;;10.07;5.50;;;9.90;99.90;;;;;;5025054;28;20276;-69
2022/04/22 01:52:40;;;;;;;9.93;5.40;;;9.90;99.90;;;;;;5022831;28;20041;-68
2022/04/22 01:55:06;;;;;;;10.55;5.25;;;9.80;99.90;;;;;;4995896;28;20045;-68
2022/04/22 01:57:32;;;;;;;10.45;5.00;;;9.70;99.90;;;;;;5006987;28;20044;-68
2022/04/22 02:00:00;;;;;;;11.43;6.37;;;9.70;99.90;;;;;;5018420;28;20403;-68
2022/04/22 02:02:25;;;;;;;13.50;5.35;;;9.70;99.90;;;;;;5022913;28;20434;-68
2022/04/22 02:04:52;;;;;;;9.33;5.27;;;9.60;99.90;;;;;;5021087;28;20041;-68
2022/04/22 02:07:17;;;;;;;13.60;4.93;;;9.60;99.90;;;;;;5018221;28;20025;-68
2022/04/22 02:09:43;;;;;;;17.47;5.90;;;9.60;99.90;;;;;;5025049;28;20040;-68
2022/04/22 02:12:09;;;;;;;12.67;5.40;;;9.50;99.90;;;;;;5025473;28;20043;-68
2022/04/22 02:14:35;;;;;;;11.48;5.22;;;9.50;99.90;;;;;;5018269;28;20033;-68
2022/04/22 02:17:00;;;;;;;10.50;5.80;;;9.40;99.90;;;;;;5019272;28;20544;-69
2022/04/22 02:19:26;;;;;;;15.60;5.47;;;9.40;99.90;;;;;;5003238;28;20754;-67
2022/04/22 02:21:52;;;;;;;10.23;4.97;;;9.40;99.90;;;;;;5023110;28;20038;-68
2022/04/22 02:24:18;;;;;;;13.70;5.60;;;9.40;99.90;;;;;;5002851;28;20033;-68
2022/04/22 02:29:28;;;;;;;14.13;6.05;;;9.30;99.90;;;;;;5022842;28;20049;-69
2022/04/22 02:31:54;;;;;;;10.03;5.23;;;9.20;99.90;;;;;;5021947;28;20390;-69
2022/04/22 02:34:23;;;;;;;10.67;5.07;;;9.30;99.90;;;;;;5019426;28;20482;-68
2022/04/22 02:36:50;;;;;;;10.90;4.95;;;9.20;99.90;;;;;;5023190;28;20233;-68
2022/04/22 02:39:17;;;;;;;10.65;4.55;;;9.20;99.90;;;;;;5003081;28;20048;-69
2022/04/22 02:47:11;;;;;;;9.52;5.28;;;9.10;99.90;;;;;;5017751;28;20041;-68
2022/04/22 02:49:36;;;;;;;11.17;5.07;;;9.10;99.90;;;;;;5021223;28;20048;-68
2022/04/22 02:52:02;;;;;;;12.02;5.30;;;9.00;99.90;;;;;;5022128;28;20496;-68
2022/04/22 02:54:30;;;;;;;10.23;4.70;;;9.00;99.90;;;;;;5022270;28;20045;-69
2022/04/22 02:56:57;;;;;;;10.88;5.15;;;9.00;99.90;;;;;;5007800;28;20053;-68
2022/04/22 02:59:23;;;;;;;12.15;5.00;;;9.00;99.90;;;;;;5020155;28;20051;-68
2022/04/22 03:01:49;;;;;;;10.50;5.22;;;8.90;99.90;;;;;;5002480;28;20049;-68
2022/04/22 03:04:15;;;;;;;18.07;5.07;;;8.90;99.90;;;;;;5022282;28;20037;-68
2022/04/22 03:06:41;;;;;;;14.15;5.53;;;8.90;99.90;;;;;;5002114;28;20443;-68
2022/04/22 03:09:07;;;;;;;10.25;4.38;;;8.90;99.90;;;;;;5005044;28;20211;-68
2022/04/22 03:11:34;;;;;;;9.10;4.97;;;8.90;99.90;;;;;;5018346;28;20437;-68
2022/04/22 03:14:05;;;;;;;13.40;4.75;;;8.80;99.90;;;;;;5014083;28;20178;-69
2022/04/22 03:16:32;;;;;;;9.23;4.93;;;8.80;99.90;;;;;;5019770;28;20037;-68
2022/04/22 03:18:59;;;;;;;8.65;4.43;;;8.80;99.90;;;;;;5003039;28;20042;-68
2022/04/22 03:21:25;;;;;;;11.85;5.60;;;8.80;99.90;;;;;;5008129;28;20505;-68
2022/04/22 03:23:51;;;;;;;11.50;5.13;;;8.70;99.90;;;;;;5008347;28;20037;-68
2022/04/22 03:26:18;;;;;;;14.00;5.07;;;8.70;99.90;;;;;;5015204;28;20034;-68
2022/04/22 03:28:44;;;;;;;11.68;5.00;;;8.70;99.90;;;;;;5021350;28;20042;-68
2022/04/22 03:31:10;;;;;;;7.25;4.47;;;8.60;99.90;;;;;;5016418;28;20038;-68
2022/04/22 03:33:35;;;;;;;10.23;4.47;;;8.60;99.90;;;;;;5021967;28;20041;-68
2022/04/22 03:36:01;;;;;;;11.97;7.13;;;8.60;99.90;;;;;;5018662;28;20164;-68
2022/04/22 03:38:27;;;;;;;10.07;4.67;;;8.50;99.90;;;;;;5019463;28;20402;-68
2022/04/22 03:40:53;;;;;;;12.90;4.63;;;8.50;99.90;;;;;;5004728;28;20033;-68
2022/04/22 03:43:20;;;;;;;8.50;4.80;;;8.50;99.90;;;;;;5017366;28;20438;-68
2022/04/22 03:45:46;;;;;;;13.15;5.28;;;8.50;99.90;;;;;;5023418;28;20129;-68
2022/04/22 03:48:13;;;;;;;11.47;4.77;;;8.50;99.90;;;;;;5027964;28;20545;-68
2022/04/22 03:50:39;;;;;;;11.63;5.13;;;8.40;99.90;;;;;;5018867;28;20367;-68
2022/04/22 03:53:05;;;;;;;14.40;5.20;;;8.40;99.90;;;;;;4997903;28;20046;-68
2022/04/22 03:55:31;;;;;;;9.18;5.03;;;8.30;99.90;;;;;;5024574;28;20049;-68
2022/04/22 03:58:12;;;;;;;9.73;4.85;;;8.30;99.90;;;;;;5022694;28;20425;-67
2022/04/22 04:00:41;;;;;;;7.25;4.65;;;8.30;99.90;;;;;;5001494;28;20044;-68
2022/04/22 04:03:18;;;;;;;8.27;4.78;;;8.30;99.90;;;;;;5025249;28;20049;-67
2022/04/22 04:05:48;;;;;;;7.25;4.25;;;8.30;99.90;;;;;;5022618;28;20056;-67
2022/04/22 04:08:14;;;;;;;9.85;4.70;;;8.20;99.90;;;;;;5019351;28;20049;-68
2022/04/22 04:16:09;;;;;;;10.75;4.72;;;8.20;99.90;;;;;;5021497;28;20077;-67
2022/04/22 04:18:37;;;;;;;8.90;4.47;;;8.20;99.90;;;;;;5017718;28;20457;-67
2022/04/22 04:23:49;;;;;;;10.02;4.35;;;8.10;99.90;;;;;;4999100;28;20056;-68
2022/04/22 04:26:15;;;;;;;9.70;4.75;;;8.10;99.90;;;;;;5015580;28;20041;-68
2022/04/22 04:28:47;;;;;;;11.25;4.60;;;8.10;99.90;;;;;;5019540;28;20233;-68
2022/04/22 04:31:13;;;;;;;7.60;4.13;;;8.10;99.90;;;;;;5013989;28;20077;-68
2022/04/22 04:33:39;;;;;;;;;;;8.10;99.90;;;;;;5021777;28;20038;-67
2022/04/22 04:36:06;;;;;;;11.02;4.82;;;8.00;99.90;;;;;;5018776;28;19928;-68
2022/04/22 04:38:32;;;;;;;;;;;8.00;99.90;;;;;;5019304;28;20393;-68
2022/04/22 04:41:01;;;;;;;9.23;4.38;;;8.00;99.90;;;;;;5017517;28;19932;-67
2022/04/22 04:43:26;;;;;;;8.98;4.45;;;8.00;99.90;;;;;;5000572;28;20103;-70
2022/04/22 04:45:52;;;;;;;12.47;4.40;;;8.00;99.90;;;;;;5017586;28;20045;-68
2022/04/22 04:48:18;;;;;;;6.97;3.93;;;8.00;99.90;;;;;;5016828;28;20336;-68
2022/04/22 04:50:45;;;;;;;8.98;4.05;;;8.00;99.90;;;;;;5016376;28;20045;-67
2022/04/22 04:53:12;;;;;;;11.30;5.07;;;8.00;99.90;;;;;;5021022;28;20520;-68
2022/04/22 04:55:38;;;;;;;;;;;8.00;99.90;;;;;;4993757;28;20498;-67
2022/04/22 04:58:04;;;;;;;9.40;4.50;;;8.00;99.90;;;;;;5001451;28;19923;-68
2022/04/22 05:00:30;;;;;;;12.38;4.75;;;8.00;99.90;;;;;;4989246;28;20041;-68
2022/04/22 05:02:56;;;;;;;10.73;4.23;;;8.00;99.90;;;;;;5015836;28;20060;-68
2022/04/22 05:05:22;;;;;;;8.45;4.55;;;8.00;99.90;;;;;;5000644;28;20516;-68
2022/04/22 05:07:59;;;;;;;7.57;4.18;;;8.00;99.90;;;;;;5015854;28;20033;-68
2022/04/22 05:10:26;;;;;;;;;;;8.00;99.90;;;;;;5016960;28;20084;-68
2022/04/22 05:12:52;;;;;;;8.90;4.23;;;8.00;99.90;;;;;;5021267;28;20012;-68
2022/04/22 05:15:19;;;;;;;9.48;5.07;;;8.00;99.90;;;;;;5002941;28;20547;-67
2022/04/22 05:17:46;;;;;;;8.93;4.15;;;8.00;99.90;;;;;;5016185;28;20514;-67
2022/04/22 05:20:14;;;;;;;9.90;3.78;;;8.00;99.90;;;;;;5006216;28;20633;-67
2022/04/22 05:22:41;;;;;;;7.32;4.30;;;8.00;99.90;;;;;;5023043;28;20041;-67
2022/04/22 05:25:08;;;;;;;5.95;3.90;;;8.00;99.90;;;;;;4995703;28;20263;-67
2022/04/22 05:27:34;;;;;;;8.10;3.78;;;8.10;99.90;;;;;;4997524;28;20049;-68
2022/04/22 05:32:53;;;;;;;7.47;3.70;;;8.10;99.90;;;;;;5001413;28;20085;-68
2022/04/22 05:35:21;;;;;;;9.43;4.53;;;8.10;99.90;;;;;;5030789;28;20045;-70
2022/04/22 05:37:54;;;;;;;11.57;4.47;;;8.10;99.90;;;;;;5024922;28;20113;-70
2022/04/22 05:40:29;;;;;;;7.90;3.85;;;8.10;99.90;;;;;;5009548;28;20049;-71
2022/04/22 05:42:55;;;;;;;8.07;3.90;;;8.10;99.90;;;;;;5020997;28;20485;-70
2022/04/22 05:45:22;;;;;;;9.85;3.60;;;8.20;99.90;;;;;;5001987;28;20048;-69
2022/04/22 05:47:51;;;;;;;6.38;3.20;;;8.20;99.90;;;;;;5018188;28;20409;-69
2022/04/22 05:50:18;;;;;;;6.95;3.45;;;8.20;99.90;;;;;;5023077;28;20044;-68
2022/04/22 05:52:44;;;;;;;6.90;3.30;;;8.20;99.90;;;;;;5022197;28;20025;-67
2022/04/22 05:55:12;;;;;;;5.88;3.30;;;8.30;99.90;;;;;;5011744;28;20040;-74
2022/04/22 05:57:39;;;;;;;6.53;3.30;;;8.30;99.90;;;;;;4981832;28;20124;-76
2022/04/22 06:00:08;;;;;;;10.32;3.47;;;8.40;99.90;;;;;;5015914;28;20034;-74
2022/04/22 06:02:34;;;;;;;6.95;3.45;;;8.40;99.90;;;;;;5021192;28;20434;-74
2022/04/22 06:05:00;;;;;;;9.60;4.05;;;8.40;99.90;;;;;;5019930;28;20096;-73
2022/04/22 06:07:26;;;;;;;8.63;3.30;;;8.50;99.90;;;;;;5024854;28;20029;-74
2022/04/22 06:12:35;;;;;;;6.93;3.28;;;8.50;99.90;;;;;;5007593;28;20045;-69
2022/04/22 06:15:02;;;;;;;6.23;2.97;;;8.60;99.90;;;;;;5024285;28;20261;-68
2022/04/22 06:17:29;;;;;;;6.30;3.30;;;8.60;99.90;;;;;;5021881;28;20041;-67
2022/04/22 06:19:58;;;;;;;6.13;3.33;;;8.70;99.90;;;;;;5011126;28;20269;-67
2022/04/22 06:22:27;;;;;;;5.28;3.22;;;8.70;99.90;;;;;;5019348;28;20125;-68
2022/04/22 06:24:54;;;;;;;7.78;3.10;;;8.80;99.90;;;;;;5015686;28;20069;-69
2022/04/22 06:27:25;;;;;;;5.57;2.70;;;8.80;99.90;;;;;;5003234;28;20497;-68
2022/04/22 06:29:52;;;;;;;6.55;2.55;;;8.80;99.90;;;;;;5021913;28;20128;-68
2022/04/22 06:32:18;;;;;;;5.47;2.67;;;8.90;99.90;;;;;;5025614;28;20052;-68
2022/04/22 06:34:44;;;;;;;8.55;2.63;;;8.90;99.90;;;;;;5019409;28;20033;-68
2022/04/22 06:37:11;;;;;;;5.57;3.13;;;9.00;99.90;;;;;;5023340;28;20041;-68
2022/04/22 06:47:52;;;;;;;4.13;2.50;;;9.30;99.90;;;;;;5022305;28;20624;-64
2022/04/22 06:50:19;;;;;;;7.82;2.70;;;9.40;99.90;;;;;;5018407;28;20285;-65
2022/04/22 06:52:46;;;;;;;5.20;2.47;;;9.50;99.90;;;;;;5027182;28;20494;-65
2022/04/22 06:55:13;;;;;;;4.30;2.35;;;9.50;99.90;;;;;;5000916;28;20121;-65
2022/04/22 06:57:40;;;;;;;8.65;3.85;;;9.60;99.90;;;;;;5015118;28;20103;-65
2022/04/22 07:00:10;;;;;;;5.55;2.55;;;9.70;99.90;;;;;;5011349;28;20410;-65
2022/04/22 07:02:36;;;;;;;5.18;2.28;;;9.70;99.90;;;;;;5008187;28;20597;-65
2022/04/22 07:05:03;;;;;;;9.02;2.47;;;9.80;99.90;;;;;;5010880;28;20526;-65
2022/04/22 07:07:28;;;;;;;6.10;2.35;;;9.80;99.90;;;;;;5005032;28;20038;-65
2022/04/22 07:09:54;;;;;;;5.27;1.97;;;9.90;99.90;;;;;;5027926;28;20485;-65
2022/04/22 07:12:23;;;;;;;8.32;2.63;;;9.90;99.90;;;;;;5024781;28;20049;-65
2022/04/22 07:14:51;;;;;;;4.30;1.80;;;10.00;99.90;;;;;;5026718;28;20049;-65
2022/04/22 07:17:16;;;;;;;8.43;2.38;;;10.10;99.90;;;;;;5011053;28;20114;-65
2022/04/22 07:19:42;;;;;;;5.70;1.90;;;10.20;99.90;;;;;;5055148;22;20045;-69
2022/04/22 07:22:09;;;;;;;5.03;2.33;;;10.20;99.90;;;;;;5026084;28;20068;-69
2022/04/22 07:24:35;;;;;;;8.30;2.13;;;10.30;99.90;;;;;;5015726;28;20462;-69
2022/04/22 07:27:01;;;;;;;3.55;1.85;;;10.40;99.90;;;;;;5029682;28;20506;-69
2022/04/22 07:29:31;;;;;;;4.53;2.20;;;10.50;99.90;;;;;;5032049;28;20144;-68
2022/04/22 07:31:57;;;;;;;5.10;2.00;;;10.60;99.90;;;;;;5019510;28;20148;-69
2022/04/22 07:34:23;;;;;;;7.60;1.87;;;10.60;99.90;;;;;;5013252;28;20453;-69
2022/04/22 07:36:49;;;;;;;5.17;2.27;;;10.70;99.90;;;;;;5030072;28;20304;-69
2022/04/22 07:39:14;;;;;;;4.27;2.10;;;10.80;99.90;;;;;;5027606;28;20492;-69
2022/04/22 07:41:41;;;;;;;7.93;2.10;;;10.90;99.90;;;;;;5018451;28;20118;-69
2022/04/22 07:46:59;;;;;;;8.55;2.03;;;11.00;99.90;;;;;;5010167;28;20053;-69
2022/04/22 07:49:26;;;;;;;3.60;1.80;;;11.10;99.90;;;;;;5024134;28;20045;-70
2022/04/22 07:51:52;;;;;;;6.82;1.83;;;11.20;99.90;;;;;;5013551;28;20053;-69
2022/04/22 07:54:18;;;;;;;4.65;1.90;;;11.30;99.90;;;;;;4992307;28;20050;-69
2022/04/22 07:56:43;;;;;;;2.93;1.80;;;11.30;99.90;;;;;;5012033;28;20042;-68
2022/04/22 07:59:09;;;;;;;3.20;2.10;;;11.40;99.90;;;;;;4991732;28;20044;-69
2022/04/22 08:01:35;;;;;;;2.83;1.90;;;11.40;99.90;;;;;;5023547;28;20133;-68
2022/04/22 08:04:01;;;;;;;5.97;2.10;;;11.50;99.90;;;;;;5026124;28;20114;-69
2022/04/22 08:06:27;;;;;;;3.55;2.17;;;11.60;99.90;;;;;;5005636;28;20489;-69
2022/04/22 08:08:53;;;;;;;5.20;2.20;;;11.70;99.90;;;;;;5022343;28;20615;-69
2022/04/22 08:11:21;;;;;;;4.70;2.43;;;11.80;99.90;;;;;;5014327;28;20120;-70
2022/04/22 08:13:47;;;;;;;4.43;2.13;;;11.80;99.90;;;;;;5026134;28;20045;-69
2022/04/22 08:16:13;;;;;;;4.33;2.07;;;12.00;99.90;;;;;;5021365;28;20196;-68
2022/04/22 08:18:39;;;;;;;5.68;1.60;;;12.00;99.90;;;;;;5007850;28;20056;-69
2022/04/22 08:21:05;;;;;;;3.07;1.70;;;12.10;99.90;;;;;;5018594;28;20128;-69
2022/04/22 08:23:30;;;;;;;8.57;2.60;;;12.20;99.90;;;;;;5028715;28;20052;-69
2022/04/22 08:25:56;;;;;;;4.17;1.60;;;12.20;99.90;;;;;;5021824;28;20402;-69
2022/04/22 08:28:22;;;;;;;6.47;1.95;;;12.30;99.90;;;;;;5020067;28;20747;-70
2022/04/22 08:30:47;;;;;;;4.63;2.03;;;12.30;99.90;;;;;;5025701;28;20033;-69
2022/04/22 08:33:13;;;;;;;7.70;2.10;;;12.50;99.90;;;;;;5035162;28;20091;-68
2022/04/22 08:35:39;;;;;;;4.87;2.13;;;12.50;99.90;;;;;;4995717;28;20940;-69
2022/04/22 08:38:07;;;;;;;5.20;1.90;;;12.60;99.90;;;;;;5010761;28;20308;-69
2022/04/22 08:40:37;;;;;;;4.72;2.00;;;12.70;99.90;;;;;;5016984;28;20144;-69
2022/04/22 08:43:03;;;;;;;5.13;1.58;;;12.70;99.50;;;;;;5028094;28;20225;-69
2022/04/22 08:45:29;;;;;;;5.32;1.77;;;12.80;99.60;;;;;;5023663;28;20073;-69
2022/04/22 08:50:42;;;;;;;5.20;2.00;;;13.00;98.90;;;;;;5025141;28;20486;-69
2022/04/22 08:53:18;;;;;;;5.45;2.10;;;13.10;98.20;;;;;;4985032;28;20087;-70
2022/04/22 08:55:45;;;;;;;3.38;1.67;;;13.20;98.40;;;;;;5014544;28;20127;-70
2022/04/22 08:58:11;;;;;;;;;;;13.20;98.40;;;;;;5019509;28;20094;-69
2022/04/22 09:00:40;;;;;;;6.88;1.90;;;13.40;97.30;;;;;;5020050;28;19956;-69
2022/04/22 09:03:06;;;;;;;8.43;2.10;;;13.40;97.60;;;;;;5010008;28;20136;-69
2022/04/22 09:05:34;;;;;;;3.83;1.77;;;13.50;96.70;;;;;;5027014;28;20092;-69
2022/04/22 09:08:01;;;;;;;3.75;1.95;;;13.60;95.60;;;;;;5019340;28;20038;-70
2022/04/22 09:10:27;;;;;;;5.65;1.80;;;13.70;94.00;;;;;;5026192;28;20118;-69
2022/04/22 09:12:57;;;;;;;4.22;1.73;;;13.70;94.30;;;;;;5021036;28;20488;-70
2022/04/22 09:15:31;;;;;;;3.85;2.00;;;13.70;94.10;;;;;;5010997;28;20045;-69
2022/04/22 09:18:08;;;;;;;5.53;1.80;;;13.80;93.50;;;;;;5021304;28;20110;-69
2022/04/22 09:20:35;;;;;;;3.80;1.70;;;13.90;93.10;;;;;;5012566;28;20038;-70
2022/04/22 09:23:01;;;;;;;4.40;1.85;;;14.10;91.80;;;;;;5029575;28;20043;-69
2022/04/22 09:25:28;;;;;;;4.65;1.85;;;14.20;90.90;;;;;;4997128;28;20120;-70
2022/04/22 09:28:07;;;;;;;6.25;2.05;;;14.20;88.60;;;;;;5010107;28;20077;-70
2022/04/22 09:30:32;;;;;;;6.82;1.70;;;14.30;88.10;;;;;;5025314;28;20045;-69
2022/04/22 09:32:58;;;;;;;3.60;1.70;;;14.30;89.50;;;;;;5034573;28;20405;-70
2022/04/22 09:35:26;;;;;;;4.87;1.90;;;14.40;87.20;;;;;;5021367;28;20855;-70
2022/04/22 09:43:35;;;;;;;5.10;1.70;;;14.60;82.80;;;;;;5026741;28;20045;-70
2022/04/22 09:46:02;;;;;;;3.78;1.90;;;14.60;81.20;;;;;;5006102;28;20132;-70
2022/04/22 09:48:44;;;;;;;4.03;1.90;;;14.70;83.00;;;;;;5026220;28;20343;-70
2022/04/22 09:51:22;;;;;;;3.22;1.40;;;14.80;81.50;;;;;;5008882;28;20521;-69
2022/04/22 09:53:59;;;;;;;3.90;1.73;;;14.90;81.00;;;;;;5028761;28;20095;-70
2022/04/22 09:56:25;;;;;;;3.55;2.03;;;15.00;78.00;;;;;;5028889;28;20075;-70
2022/04/22 09:58:50;;;;;;;4.33;1.70;;;15.10;79.50;;;;;;5013277;28;20088;-70
2022/04/22 10:01:16;;;;;;;3.77;1.30;;;15.20;76.40;;;;;;5008987;28;20140;-70
2022/04/22 10:03:42;;;;;;;5.35;1.85;;;15.30;75.50;;;;;;5029894;28;20092;-71
2022/04/22 10:06:08;;;;;;;6.95;1.80;;;15.40;76.80;;;;;;5029284;28;20053;-70
2022/04/22 10:08:38;;;;;;;4.35;1.70;;;15.50;75.30;;;;;;5012760;28;20075;-70
2022/04/22 10:11:05;;;;;;;2.70;1.63;;;15.50;75.40;;;;;;5025172;28;20045;-70
2022/04/22 10:13:43;;;;;;;6.07;1.55;;;15.60;74.80;;;;;;5025843;28;20049;-70
2022/04/22 10:16:09;;;;;;;5.00;1.67;;;15.70;70.50;;;;;;5034360;28;20052;-70
2022/04/22 10:18:35;;;;;;;4.05;1.55;;;15.70;69.60;;;;;;5027367;28;20037;-70
2022/04/22 10:21:02;;;;;;;4.82;1.98;;;15.80;69.90;;;;;;5030098;28;20088;-69
2022/04/22 10:23:29;;;;;;;5.68;1.88;;;15.80;69.20;;;;;;5032997;28;20204;-70
2022/04/22 10:25:54;;;;;;;4.00;1.65;;;15.90;68.00;;;;;;5002258;28;20049;-70
2022/04/22 10:28:22;;;;;;;4.45;1.80;;;15.90;68.10;;;;;;5032249;28;20051;-70
2022/04/22 10:30:51;;;;;;;4.45;1.70;;;16.00;66.90;;;;;;5030100;28;20324;-70
2022/04/22 10:33:16;;;;;;;3.30;1.92;;;16.10;67.60;;;;;;5003031;28;20076;-70
2022/04/22 10:35:44;;;;;;;4.47;1.83;;;16.10;68.00;;;;;;5020717;28;20042;-70
2022/04/22 10:38:38;;;;;;;7.40;1.90;;;16.20;67.90;;;;;;5027359;28;20300;-70
2022/04/22 10:41:12;;;;;;;5.35;2.38;;;16.30;67.40;;;;;;5001161;28;20385;-70
2022/04/22 10:43:39;;;;;;;2.95;1.77;;;16.40;68.80;;;;;;5032017;28;20041;-70
2022/04/22 10:49:15;;;;;;;6.88;2.67;;;16.50;67.80;;;;;;5009195;28;20053;-70
2022/04/22 10:52:11;;;;;;;3.63;2.05;;;16.60;67.30;;;;;;5025648;28;20078;-70
2022/04/22 10:54:52;;;;;;;3.55;2.10;;;16.70;66.60;;;;;;4999277;28;20132;-70
2022/04/22 10:57:32;;;;;;;3.72;2.25;;;16.80;65.10;;;;;;4997495;28;20042;-70
2022/04/22 11:00:07;;;;;;;4.03;2.22;;;16.90;65.90;;;;;;5011683;28;20045;-70
2022/04/22 11:02:34;;;;;;;7.22;2.13;;;16.90;65.10;;;;;;5028720;28;20045;-70
2022/04/22 11:05:21;;;;;;;6.18;2.25;;;16.90;65.10;;;;;;5015131;28;20090;-70
2022/04/22 11:07:53;;;;;;;3.70;2.03;;;17.00;64.80;;;;;;5030859;28;20041;-70
2022/04/22 11:10:20;;;;;;;5.10;2.22;;;17.00;64.10;;;;;;5028394;28;20123;-70
2022/04/22 11:12:57;;;;;;;4.65;2.33;;;17.00;63.40;;;;;;5024856;28;20038;-70
2022/04/22 11:15:42;;;;;;;5.10;2.28;;;17.00;62.90;;;;;;4997175;28;20038;-70
2022/04/22 11:18:12;;;;;;;4.07;2.42;;;17.00;65.20;;;;;;5028899;28;20077;-70
2022/04/22 11:20:43;;;;;;;3.28;1.90;;;17.10;65.10;;;;;;5015367;28;20052;-70
2022/04/22 11:23:13;;;;;;;4.90;2.88;;;17.20;62.90;;;;;;5014467;28;20046;-70
2022/04/22 11:25:40;;;;;;;3.17;1.88;;;17.30;62.70;;;;;;5016910;28;20291;-70
2022/04/22 11:28:07;;;;;;;4.18;2.10;;;17.40;61.70;;;;;;5021750;28;20046;-71
2022/04/22 11:30:34;;;;;;;6.50;2.30;;;17.40;61.70;;;;;;4994141;28;20049;-70
2022/04/22 11:33:16;;;;;;;;;;;17.50;61.90;;;;;;5014858;28;20045;-70
2022/04/22 11:35:41;;;;;;;4.78;2.30;;;17.60;60.90;;;;;;5010513;28;19964;-70
2022/04/22 11:38:07;;;;;;;4.30;2.30;;;17.70;62.40;;;;;;5033903;28;20069;-70
2022/04/22 11:40:40;;;;;;;5.43;2.28;;;17.80;62.50;;;;;;5030082;28;20045;-70
2022/04/22 11:43:07;;;;;;;4.90;2.85;;;17.90;61.60;;;;;;5028953;28;20034;-70
2022/04/22 11:45:36;;;;;;;4.30;2.50;;;18.00;61.30;;;;;;5027434;28;20239;-70
2022/04/22 11:48:13;;;;;;;3.83;2.35;;;18.10;60.60;;;;;;5006602;28;20054;-70
2022/04/22 11:50:44;;;;;;;4.85;2.95;;;18.10;60.10;;;;;;4994940;28;20057;-70
2022/04/22 11:53:18;;;;;;;5.32;2.50;;;18.10;60.30;;;;;;5029556;28;20084;-71
2022/04/22 11:55:44;;;;;;;3.75;2.38;;;18.20;61.00;;;;;;4998650;28;20459;-70
2022/04/22 11:58:11;;;;;;;4.82;2.13;;;18.30;60.30;;;;;;5016572;28;20056;-70
2022/04/22 12:06:17;;;;;;;6.53;2.20;;;18.40;59.60;;;;;;5028995;28;20514;-70
2022/04/22 12:09:00;;;;;;;4.72;2.70;;;18.60;60.50;;;;;;5032613;28;20363;-71
2022/04/22 12:11:26;;;;;;;6.63;2.05;;;18.70;59.30;;;;;;5025976;28;20033;-70
2022/04/22 12:13:53;;;;;;;4.10;2.30;;;18.80;58.80;;;;;;5029990;28;20377;-70
2022/04/22 12:16:24;;;;;;;3.60;2.30;;;18.90;57.60;;;;;;5021262;28;20136;-69
2022/04/22 12:18:51;;;;;;;4.18;2.60;;;19.00;56.90;;;;;;5021214;28;98064;-69
2022/04/22 12:21:18;;;;;;;3.38;2.05;;;19.00;56.60;;;;;;5035397;28;20037;-69
2022/04/22 12:23:49;;;;;;;5.00;2.83;;;19.00;56.90;;;;;;4994806;28;20089;-69
2022/04/22 12:26:19;;;;;;;5.75;3.03;;;19.10;56.10;;;;;;5017050;28;20107;-70
2022/04/22 12:28:58;;;;;;;5.18;2.60;;;19.10;56.20;;;;;;4995187;28;20041;-70
2022/04/22 12:31:25;;;;;;;3.53;2.17;;;19.10;55.20;;;;;;4990586;28;20057;-70
2022/04/22 12:34:04;;;;;;;6.10;2.78;;;19.10;55.20;;;;;;5015155;28;20112;-70
2022/04/22 12:36:37;;;;;;;6.93;2.70;;;19.20;55.10;;;;;;5028147;28;20051;-69
2022/04/22 12:39:08;;;;;;;6.55;2.47;;;19.30;55.60;;;;;;5019523;28;20052;-70
2022/04/22 12:41:52;;;;;;;3.70;2.55;;;19.40;55.00;;;;;;5033771;28;20034;-70
2022/04/22 12:44:17;;;;;;;6.85;2.63;;;19.40;55.00;;;;;;5008668;28;20064;-70
2022/04/22 12:52:08;;;;;;;6.80;2.33;;;19.40;53.50;;;;;;5025315;28;20085;-70
2022/04/22 12:52:29;;;;;;;4.18;2.05;;;19.40;53.50;;;;;;5025270;28;20084;-70
2022/04/22 12:55:08;;;;;;;4.20;2.17;;;19.40;53.30;;;;;;5023175;28;20446;-70
2022/04/22 12:57:41;;;;;;;6.50;2.38;;;19.50;52.90;;;;;;4997018;28;20146;-70
2022/04/22 13:00:18;;;;;;;5.13;2.28;;;19.60;53.30;;;;;;5012341;28;20190;-70
2022/04/22 13:02:44;;;;;;;;;;;19.70;53.30;;;;;;5023355;28;20041;-68
2022/04/22 13:05:21;;;;;;;4.22;2.92;;;19.90;52.70;;;;;;5006483;28;19927;-69
2022/04/22 13:07:47;;;;;;;;;;;20.10;53.20;;;;;;5029739;28;20179;-70
2022/04/22 13:10:14;;;;;;;4.17;2.40;;;20.10;52.70;;;;;;5028099;28;20396;-69
2022/04/22 13:12:41;;;;;;;6.53;2.65;;;20.10;53.10;;;;;;5026608;28;20045;-69
2022/04/22 13:15:17;;;;;;;5.00;2.83;;;20.10;52.30;;;;;;4990256;28;20041;-69
2022/04/22 13:17:44;;;;;;;6.10;2.83;;;20.10;51.20;;;;;;5026519;28;20498;-70
2022/04/22 13:20:12;;;;;;;5.50;2.83;;;20.10;52.00;;;;;;5056164;22;20076;-66
2022/04/22 13:22:39;;;;;;;5.65;2.80;;;20.00;51.60;;;;;;5030724;28;20656;-66
2022/04/22 13:25:05;;;;;;;5.07;3.05;;;20.00;52.20;;;;;;5037486;28;20067;-66
2022/04/22 13:27:31;;;;;;;5.93;2.97;;;19.90;51.90;;;;;;5023096;28;20085;-66
2022/04/22 13:29:57;;;;;;;4.47;3.13;;;20.00;52.60;;;;;;5025868;28;20075;-66
2022/04/22 13:32:23;;;;;;;;;;;20.00;52.40;;;;;;5020976;28;20038;-66
2022/04/22 13:34:48;;;;;;;8.18;3.00;;;20.00;52.40;;;;;;5028329;28;19924;-66
2022/04/22 13:37:14;;;;;;;6.50;3.28;;;20.00;52.00;;;;;;5026870;28;20474;-66
2022/04/22 13:39:39;;;;;;;6.10;3.13;;;20.00;52.10;;;;;;5019696;28;20037;-66
2022/04/22 13:42:05;;;;;;;6.60;3.08;;;20.10;52.70;;;;;;5033731;28;20110;-67
2022/04/22 13:52:45;;;;;;;5.40;3.08;;;20.20;52.70;;;;;;5022152;28;20042;-66
2022/04/22 13:55:11;;;;;;;6.20;3.20;;;20.20;52.40;;;;;;5026238;28;20026;-66
2022/04/22 13:57:36;;;;;;;5.88;3.55;;;20.10;52.40;;;;;;5007686;28;20276;-66
2022/04/22 14:00:04;;;;;;;6.53;3.00;;;20.10;52.50;;;;;;5029597;28;20140;-66